createdAt,value
2022-09-27T00:02:27.563Z,11.00
2022-09-27T00:04:56.018Z,10.90
2022-09-27T00:07:25.633Z,11.10
2022-09-27T00:09:52.731Z,11.00
2022-09-27T00:12:40.415Z,11.30
2022-09-27T00:15:17.145Z,11.10
2022-09-27T00:17:58.475Z,11.20
2022-09-27T00:20:33.982Z,11.30
2022-09-27T00:23:13.052Z,11.00
2022-09-27T00:25:42.625Z,11.30
2022-09-27T00:28:11.191Z,11.30
2022-09-27T00:30:42.822Z,11.10
2022-09-27T00:33:14.813Z,11.40
2022-09-27T00:35:44.873Z,11.90
2022-09-27T00:38:18.328Z,11.50
2022-09-27T00:40:49.035Z,11.30
2022-09-27T00:43:21.478Z,11.90
2022-09-27T00:46:00.142Z,11.10
2022-09-27T00:48:34.165Z,11.70
2022-09-27T00:51:07.359Z,11.70
2022-09-27T00:53:51.660Z,11.10
2022-09-27T00:56:26.073Z,11.00
2022-09-27T00:59:34.906Z,11.30
2022-09-27T01:02:08.503Z,11.40
2022-09-27T01:06:07.157Z,11.60
2022-09-27T01:08:38.423Z,11.50
2022-09-27T01:11:08.930Z,11.20
2022-09-27T01:13:51.587Z,11.30
2022-09-27T01:16:35.384Z,11.30
2022-09-27T01:19:56.642Z,11.30
2022-09-27T01:22:54.760Z,11.50
2022-09-27T01:25:47.640Z,11.60
2022-09-27T01:28:54.542Z,11.70
2022-09-27T01:31:31.581Z,11.40
2022-09-27T01:34:11.954Z,11.70
2022-09-27T01:37:33.566Z,11.50
2022-09-27T01:40:59.254Z,11.50
2022-09-27T01:44:31.764Z,11.40
2022-09-27T01:51:41.618Z,12.10
2022-09-27T01:54:25.656Z,11.80
2022-09-27T01:56:58.043Z,11.60
2022-09-27T01:59:41.934Z,11.70
2022-09-27T02:02:29.924Z,11.80
2022-09-27T02:05:17.296Z,11.30
2022-09-27T02:08:33.050Z,11.50
2022-09-27T02:11:29.517Z,11.70
2022-09-27T02:15:01.291Z,11.40
2022-09-27T02:17:53.818Z,11.30
2022-09-27T02:20:56.561Z,11.50
2022-09-27T02:23:43.125Z,11.90
2022-09-27T02:26:48.379Z,11.90
2022-09-27T02:29:38.494Z,11.80
2022-09-27T02:32:05.270Z,12.10
2022-09-27T02:34:36.210Z,11.80
2022-09-27T02:37:02.922Z,11.60
2022-09-27T02:39:29.688Z,11.40
2022-09-27T02:41:58.341Z,11.60
2022-09-27T02:44:26.348Z,11.60
2022-09-27T02:47:05.872Z,11.60
2022-09-27T02:49:53.416Z,11.80
2022-09-27T02:52:54.451Z,11.60
2022-09-27T02:56:03.711Z,11.70
2022-09-27T02:58:41.216Z,11.50
2022-09-27T03:01:34.441Z,11.50
2022-09-27T03:04:15.927Z,11.20
2022-09-27T03:06:45.251Z,11.30
2022-09-27T03:09:25.282Z,11.10
2022-09-27T03:11:53.215Z,11.20
2022-09-27T03:14:19.986Z,11.10
2022-09-27T03:16:46.776Z,11.00
2022-09-27T03:19:13.581Z,11.20
2022-09-27T03:21:40.335Z,11.10
2022-09-27T03:24:07.181Z,11.20
2022-09-27T03:26:33.945Z,10.90
2022-09-27T03:29:01.087Z,10.90
2022-09-27T03:31:27.884Z,10.80
2022-09-27T03:33:54.681Z,10.90
2022-09-27T03:36:21.411Z,10.70
2022-09-27T03:38:48.122Z,10.80
2022-09-27T03:41:14.856Z,10.70
2022-09-27T03:44:05.124Z,11.00
2022-09-27T03:46:49.941Z,10.80
2022-09-27T03:49:21.208Z,11.40
2022-09-27T03:52:36.523Z,11.50
2022-09-27T03:55:03.722Z,11.90
2022-09-27T03:57:31.856Z,11.80
2022-09-27T03:59:59.783Z,11.50
2022-09-27T04:02:28.195Z,11.60
2022-09-27T04:04:55.004Z,11.80
2022-09-27T04:07:21.918Z,11.60
2022-09-27T04:09:48.643Z,11.70
2022-09-27T04:12:15.843Z,11.20
2022-09-27T04:14:42.582Z,11.90
2022-09-27T04:17:09.338Z,11.70
2022-09-27T04:19:36.859Z,11.70
2022-09-27T04:22:03.606Z,11.50
2022-09-27T04:24:31.743Z,11.60
2022-09-27T04:26:58.473Z,11.70
2022-09-27T04:29:25.746Z,11.90
2022-09-27T04:31:52.495Z,11.60
2022-09-27T04:34:43.212Z,11.70
2022-09-27T04:37:12.427Z,10.90
2022-09-27T04:39:39.714Z,11.20
2022-09-27T04:42:06.522Z,11.90
2022-09-27T04:44:33.259Z,11.60
2022-09-27T04:47:00.012Z,11.30
2022-09-27T04:49:26.855Z,12.00
2022-09-27T04:51:53.577Z,11.50
2022-09-27T04:54:20.614Z,11.80
2022-09-27T04:56:48.751Z,11.30
2022-09-27T04:59:15.941Z,11.20
2022-09-27T05:01:42.822Z,11.00
2022-09-27T05:04:09.691Z,10.90
2022-09-27T05:06:36.470Z,10.60
2022-09-27T05:09:03.372Z,10.90
2022-09-27T05:11:30.153Z,10.50
2022-09-27T05:13:56.881Z,10.40
2022-09-27T05:16:24.864Z,10.40
2022-09-27T05:18:51.682Z,10.60
2022-09-27T05:21:18.498Z,11.00
2022-09-27T05:23:47.842Z,11.30
2022-09-27T05:26:14.980Z,11.50
2022-09-27T05:28:44.254Z,10.80
2022-09-27T05:31:12.012Z,11.20
2022-09-27T05:33:38.774Z,10.90
2022-09-27T05:36:05.786Z,10.70
2022-09-27T05:38:32.573Z,10.60
2022-09-27T05:40:59.610Z,11.00
2022-09-27T05:43:27.912Z,10.30
2022-09-27T05:45:54.955Z,10.50
2022-09-27T05:48:22.185Z,10.50
2022-09-27T05:50:49.028Z,10.00
2022-09-27T05:53:15.828Z,10.10
2022-09-27T05:55:43.157Z,10.10
2022-09-27T05:58:11.211Z,10.20
2022-09-27T06:00:38.603Z,10.30
2022-09-27T06:03:07.882Z,10.10
2022-09-27T06:05:39.986Z,10.40
2022-09-27T06:08:12.749Z,10.30
2022-09-27T06:10:41.154Z,10.80
2022-09-27T06:13:14.432Z,11.00
2022-09-27T06:15:44.700Z,11.40
2022-09-27T06:18:16.116Z,11.10
2022-09-27T06:20:43.416Z,10.60
2022-09-27T06:23:17.303Z,10.60
2022-09-27T06:25:44.810Z,10.40
2022-09-27T06:28:11.837Z,10.40
2022-09-27T06:30:49.507Z,10.30
2022-09-27T06:33:20.104Z,10.30
2022-09-27T06:35:49.899Z,10.20
2022-09-27T06:38:18.651Z,10.40
2022-09-27T06:40:45.955Z,10.30
2022-09-27T06:43:19.742Z,10.30
2022-09-27T06:45:47.354Z,10.30
2022-09-27T06:48:17.008Z,10.30
2022-09-27T06:50:45.849Z,10.30
2022-09-27T06:53:15.284Z,10.40
2022-09-27T06:55:43.099Z,10.60
2022-09-27T06:58:30.374Z,10.40
2022-09-27T07:00:58.599Z,10.50
2022-09-27T07:03:35.486Z,10.40
2022-09-27T07:06:06.558Z,10.50
2022-09-27T07:08:34.016Z,10.40
2022-09-27T07:11:06.686Z,10.20
2022-09-27T07:13:37.033Z,10.20
2022-09-27T07:16:04.305Z,10.20
2022-09-27T07:18:31.103Z,10.60
2022-09-27T07:21:00.870Z,10.80
2022-09-27T07:23:27.998Z,10.20
2022-09-27T07:25:55.022Z,10.40
2022-09-27T07:28:22.499Z,10.20
2022-09-27T07:30:50.020Z,10.60
2022-09-27T07:33:16.905Z,10.10
2022-09-27T07:35:43.861Z,10.20
2022-09-27T07:38:16.555Z,10.40
2022-09-27T07:40:44.041Z,10.70
2022-09-27T07:43:12.180Z,10.10
2022-09-27T07:45:39.649Z,10.30
2022-09-27T07:48:08.382Z,10.30
2022-09-27T07:50:35.679Z,10.30
2022-09-27T07:53:02.478Z,10.30
2022-09-27T07:55:29.289Z,11.20
2022-09-27T07:58:08.774Z,10.40
2022-09-27T08:00:37.143Z,10.30
2022-09-27T08:03:11.007Z,10.40
2022-09-27T08:05:37.886Z,10.30
2022-09-27T08:08:05.213Z,10.40
2022-09-27T08:10:33.695Z,10.30
2022-09-27T08:13:05.166Z,10.50
2022-09-27T08:15:33.353Z,10.40
2022-09-27T08:18:00.660Z,11.10
2022-09-27T08:20:27.537Z,10.40
2022-09-27T08:22:54.865Z,10.40
2022-09-27T08:25:24.320Z,10.40
2022-09-27T08:28:04.327Z,10.60
2022-09-27T08:30:32.454Z,10.60
2022-09-27T08:33:02.535Z,10.60
2022-09-27T08:35:31.423Z,10.50
2022-09-27T08:38:01.061Z,10.40
2022-09-27T08:41:06.886Z,10.60
2022-09-27T08:43:52.054Z,10.80
2022-09-27T08:46:38.035Z,10.60
2022-09-27T08:49:31.267Z,10.60
2022-09-27T08:51:59.649Z,10.40
2022-09-27T08:54:31.401Z,10.60
2022-09-27T08:57:07.132Z,11.00
2022-09-27T08:59:43.963Z,10.50
2022-09-27T09:02:21.210Z,11.30
2022-09-27T09:04:54.894Z,10.80
2022-09-27T09:07:46.102Z,10.60
2022-09-27T09:11:09.347Z,10.80
2022-09-27T09:14:31.730Z,10.90
2022-09-27T09:17:52.881Z,11.00
2022-09-27T09:20:50.406Z,11.00
2022-09-27T09:23:42.166Z,10.90
2022-09-27T09:26:26.258Z,10.70
2022-09-27T09:29:13.713Z,10.90
2022-09-27T09:32:21.145Z,10.80
2022-09-27T09:34:55.329Z,11.00
2022-09-27T09:37:31.858Z,11.10
2022-09-27T09:40:16.787Z,11.10
2022-09-27T09:43:21.501Z,11.60
2022-09-27T09:46:09.506Z,11.00
2022-09-27T09:48:59.220Z,11.00
2022-09-27T09:51:39.413Z,11.70
2022-09-27T09:54:29.346Z,11.50
2022-09-27T09:57:38.341Z,11.10
2022-09-27T10:00:16.075Z,11.40
2022-09-27T10:02:45.724Z,11.40
2022-09-27T10:05:22.477Z,11.30
2022-09-27T10:07:53.059Z,11.60
2022-09-27T10:10:21.718Z,11.60
2022-09-27T10:12:49.889Z,11.40
2022-09-27T10:15:23.557Z,11.40
2022-09-27T10:17:53.820Z,11.10
2022-09-27T10:20:45.658Z,11.20
2022-09-27T10:23:19.529Z,11.30
2022-09-27T10:25:49.136Z,11.30
2022-09-27T10:28:38.861Z,11.00
2022-09-27T10:31:18.308Z,11.20
2022-09-27T10:34:01.755Z,11.20
2022-09-27T10:36:35.049Z,11.10
2022-09-27T10:39:06.570Z,11.40
2022-09-27T10:41:41.399Z,11.30
2022-09-27T10:44:19.994Z,11.00
2022-09-27T10:46:50.526Z,11.30
2022-09-27T10:49:34.547Z,11.50
2022-09-27T10:52:24.144Z,11.20
2022-09-27T10:55:00.865Z,11.20
2022-09-27T10:57:30.280Z,11.30
2022-09-27T11:00:23.775Z,11.20
2022-09-27T11:03:01.892Z,10.90
2022-09-27T11:05:33.979Z,10.80
2022-09-27T11:08:24.149Z,10.90
2022-09-27T11:11:14.487Z,10.80
2022-09-27T11:13:42.237Z,11.00
2022-09-27T11:16:32.816Z,11.10
2022-09-27T11:19:09.943Z,10.90
2022-09-27T11:22:17.707Z,11.00
2022-09-27T11:25:39.796Z,11.00
2022-09-27T11:28:33.850Z,10.70
2022-09-27T11:31:36.625Z,11.10
2022-09-27T11:34:36.517Z,11.10
2022-09-27T11:37:24.750Z,11.20
2022-09-27T11:40:31.040Z,11.60
2022-09-27T11:43:40.024Z,11.50
2022-09-27T11:46:34.208Z,11.40
2022-09-27T11:49:37.728Z,12.00
2022-09-27T11:53:02.923Z,11.50
2022-09-27T11:56:06.474Z,12.10
2022-09-27T11:59:01.123Z,12.30
2022-09-27T12:02:01.595Z,12.30
2022-09-27T12:04:47.760Z,12.20
2022-09-27T12:08:01.588Z,12.50
2022-09-27T12:10:28.896Z,11.80
2022-09-27T12:12:58.536Z,12.20
2022-09-27T12:15:30.866Z,12.60
2022-09-27T12:18:28.513Z,12.60
2022-09-27T12:20:57.120Z,12.50
2022-09-27T12:23:53.038Z,12.60
2022-09-27T12:26:30.023Z,12.80
2022-09-27T12:29:18.316Z,13.30
2022-09-27T12:32:09.519Z,12.80
2022-09-27T12:34:51.435Z,12.50
2022-09-27T12:37:39.343Z,12.40
2022-09-27T12:40:32.047Z,12.30
2022-09-27T12:43:24.108Z,12.50
2022-09-27T12:46:34.068Z,12.60
2022-09-27T12:49:39.213Z,13.30
2022-09-27T12:52:13.130Z,13.50
2022-09-27T12:55:10.989Z,13.20
2022-09-27T12:58:13.916Z,12.00
2022-09-27T13:00:52.747Z,11.90
2022-09-27T13:03:46.288Z,11.70
2022-09-27T13:06:38.962Z,11.80
2022-09-27T13:09:28.002Z,12.00
2022-09-27T13:12:24.493Z,11.60
2022-09-27T13:15:04.862Z,11.60
2022-09-27T13:17:44.429Z,11.60
2022-09-27T13:20:31.201Z,11.80
2022-09-27T13:23:00.641Z,11.60
2022-09-27T13:25:56.321Z,11.70
2022-09-27T13:28:32.121Z,11.70
2022-09-27T13:31:16.315Z,12.20
2022-09-27T13:33:49.770Z,11.30
2022-09-27T13:36:16.464Z,11.10
2022-09-27T13:39:11.360Z,11.40
2022-09-27T13:41:42.264Z,11.10
2022-09-27T13:44:30.202Z,10.80
2022-09-27T13:47:00.450Z,10.80
2022-09-27T13:49:38.569Z,11.40
2022-09-27T13:52:33.655Z,11.10
2022-09-27T13:55:06.355Z,10.90
2022-09-27T13:57:47.677Z,10.70
2022-09-27T14:00:45.893Z,11.30
2022-09-27T14:03:12.627Z,11.10
2022-09-27T14:05:52.533Z,11.00
2022-09-27T14:08:59.243Z,11.70
2022-09-27T14:11:36.406Z,12.00
2022-09-27T14:14:05.633Z,11.50
2022-09-27T14:16:41.276Z,11.30
2022-09-27T14:19:17.713Z,11.00
2022-09-27T14:21:45.295Z,11.60
2022-09-27T14:24:35.922Z,11.60
2022-09-27T14:27:36.393Z,11.60
2022-09-27T14:30:23.516Z,11.60
2022-09-27T14:32:55.774Z,11.30
2022-09-27T14:35:49.581Z,11.50
2022-09-27T14:38:36.988Z,11.70
2022-09-27T14:41:07.783Z,11.50
2022-09-27T14:43:37.149Z,11.40
2022-09-27T14:46:07.035Z,11.20
2022-09-27T14:48:37.741Z,11.30
2022-09-27T14:51:14.067Z,11.20
2022-09-27T14:53:47.382Z,11.30
2022-09-27T14:56:22.614Z,11.40
2022-09-27T14:59:02.280Z,11.30
2022-09-27T15:01:30.304Z,11.40
2022-09-27T15:04:13.730Z,11.10
2022-09-27T15:06:41.092Z,11.40
2022-09-27T15:09:13.392Z,11.70
2022-09-27T15:11:41.657Z,11.70
2022-09-27T15:14:15.764Z,11.60
2022-09-27T15:16:45.432Z,11.50
2022-09-27T15:19:30.467Z,11.70
2022-09-27T15:22:29.251Z,11.60
2022-09-27T15:25:32.394Z,11.60
2022-09-27T15:28:06.465Z,12.10
2022-09-27T15:30:42.383Z,12.90
2022-09-27T15:33:31.862Z,13.00
2022-09-27T15:36:03.431Z,12.40
2022-09-27T15:38:48.508Z,12.80
2022-09-27T15:41:18.619Z,12.10
2022-09-27T15:43:48.915Z,12.40
2022-09-27T15:46:27.991Z,12.40
2022-09-27T15:49:16.607Z,11.90
2022-09-27T15:51:49.508Z,11.90
2022-09-27T15:54:24.855Z,11.70
2022-09-27T15:56:55.946Z,11.50
2022-09-27T15:59:27.220Z,11.60
2022-09-27T16:01:58.900Z,11.50
2022-09-27T16:04:31.771Z,11.90
2022-09-27T16:07:01.446Z,12.60
2022-09-27T16:09:28.532Z,11.80
2022-09-27T16:11:55.334Z,11.50
2022-09-27T16:14:22.130Z,11.70
2022-09-27T16:17:01.044Z,11.40
2022-09-27T16:19:27.804Z,11.40
2022-09-27T16:21:54.560Z,11.50
2022-09-27T16:24:21.327Z,11.30
2022-09-27T16:26:48.069Z,11.30
2022-09-27T16:29:15.916Z,11.20
2022-09-27T16:31:42.928Z,11.40
2022-09-27T16:34:11.336Z,12.40
2022-09-27T16:36:39.068Z,12.80
2022-09-27T16:39:13.308Z,12.20
2022-09-27T16:41:43.829Z,12.30
2022-09-27T16:44:13.970Z,12.20
2022-09-27T16:46:47.526Z,12.50
2022-09-27T16:49:33.300Z,12.70
2022-09-27T16:52:00.183Z,12.50
2022-09-27T16:54:31.055Z,12.70
2022-09-27T16:56:59.442Z,12.70
2022-09-27T16:59:26.997Z,12.60
2022-09-27T17:01:58.044Z,12.90
2022-09-27T17:04:28.363Z,12.90
2022-09-27T17:06:56.895Z,12.70
2022-09-27T17:09:24.064Z,12.30
2022-09-27T17:11:51.106Z,12.40
2022-09-27T17:14:18.223Z,12.50
2022-09-27T17:16:47.234Z,12.10
2022-09-27T17:19:16.149Z,12.50
2022-09-27T17:21:45.555Z,11.90
2022-09-27T17:24:12.811Z,11.50
2022-09-27T17:26:40.031Z,11.60
2022-09-27T17:29:08.213Z,12.20
2022-09-27T17:31:37.848Z,11.80
2022-09-27T17:34:04.820Z,11.40
2022-09-27T17:36:34.517Z,11.70
2022-09-27T17:39:02.092Z,11.50
2022-09-27T17:41:29.556Z,12.10
2022-09-27T17:43:59.546Z,11.80
2022-09-27T17:46:36.056Z,11.90
2022-09-27T17:49:22.306Z,11.80
2022-09-27T17:51:52.219Z,11.70
2022-09-27T17:54:23.994Z,12.20
2022-09-27T17:56:51.261Z,12.10
2022-09-27T17:59:18.891Z,12.10
2022-09-27T18:01:47.723Z,11.70
2022-09-27T18:04:23.611Z,11.90
2022-09-27T18:07:12.370Z,11.60
2022-09-27T18:09:40.792Z,12.10
2022-09-27T18:12:25.853Z,12.10
2022-09-27T18:15:09.970Z,12.60
2022-09-27T18:18:18.586Z,12.20
2022-09-27T18:21:11.540Z,12.40
2022-09-27T18:23:40.804Z,12.60
2022-09-27T18:26:41.514Z,12.10
2022-09-27T18:29:44.109Z,11.90
2022-09-27T18:32:20.049Z,12.00
2022-09-27T18:35:21.571Z,11.00
2022-09-27T18:38:04.679Z,10.70
2022-09-27T18:41:16.384Z,10.80
2022-09-27T18:44:10.383Z,10.70
2022-09-27T18:46:37.694Z,10.60
2022-09-27T18:49:07.968Z,10.60
2022-09-27T18:51:37.573Z,10.80
2022-09-27T18:54:13.838Z,10.70
2022-09-27T18:56:41.128Z,10.70
2022-09-27T18:59:10.046Z,10.80
2022-09-27T19:01:40.367Z,10.70
2022-09-27T19:04:13.515Z,10.60
2022-09-27T19:06:40.868Z,10.90
2022-09-27T19:09:08.923Z,10.80
2022-09-27T19:11:35.875Z,10.90
2022-09-27T19:14:03.005Z,10.60
2022-09-27T19:16:30.462Z,10.80
2022-09-27T19:18:57.512Z,11.10
2022-09-27T19:21:27.559Z,10.80
2022-09-27T19:23:54.862Z,11.10
2022-09-27T19:26:25.918Z,10.90
2022-09-27T19:28:53.399Z,11.00
2022-09-27T19:31:24.304Z,11.10
2022-09-27T19:33:56.179Z,11.10
2022-09-27T19:36:25.932Z,10.80
2022-09-27T19:38:53.551Z,10.90
2022-09-27T19:41:20.334Z,10.90
2022-09-27T19:43:54.304Z,11.00
2022-09-27T19:46:23.215Z,11.10
2022-09-27T19:48:50.985Z,10.90
2022-09-27T19:51:24.797Z,10.90
2022-09-27T19:53:53.215Z,10.90
2022-09-27T19:56:21.668Z,10.90
2022-09-27T19:58:48.954Z,11.00
2022-09-27T20:01:20.207Z,11.10
2022-09-27T20:03:48.179Z,10.90
2022-09-27T20:06:17.778Z,11.40
2022-09-27T20:08:45.311Z,11.00
2022-09-27T20:11:20.207Z,11.00
2022-09-27T20:13:47.490Z,10.80
2022-09-27T20:16:21.139Z,10.90
2022-09-27T20:18:54.792Z,11.00
2022-09-27T20:21:24.864Z,11.00
2022-09-27T20:23:55.039Z,10.90
2022-09-27T20:26:26.359Z,11.10
2022-09-27T20:28:58.055Z,11.00
2022-09-27T20:31:29.247Z,11.10
2022-09-27T20:33:56.992Z,11.20
2022-09-27T20:36:28.026Z,11.00
2022-09-27T20:39:03.031Z,11.00
2022-09-27T20:41:34.604Z,11.10
2022-09-27T20:44:05.812Z,11.00
2022-09-27T20:46:34.964Z,11.00
2022-09-27T20:49:06.947Z,11.30
2022-09-27T20:51:36.580Z,11.20
2022-09-27T20:54:05.431Z,10.90
2022-09-27T20:56:44.998Z,10.90
2022-09-27T20:59:23.102Z,11.20
2022-09-27T21:01:52.384Z,10.90
2022-09-27T21:04:21.622Z,10.90
2022-09-27T21:06:48.589Z,11.20
2022-09-27T21:09:19.372Z,11.20
2022-09-27T21:11:49.030Z,10.90
2022-09-27T21:14:16.343Z,10.90
2022-09-27T21:16:43.451Z,10.80
2022-09-27T21:19:10.688Z,11.00
2022-09-27T21:21:37.515Z,10.90
2022-09-27T21:24:04.748Z,11.10
2022-09-27T21:26:33.201Z,10.70
2022-09-27T21:29:05.828Z,10.70
2022-09-27T21:31:33.414Z,10.90
2022-09-27T21:34:03.613Z,11.00
2022-09-27T21:36:34.235Z,10.80
2022-09-27T21:39:01.575Z,11.00
2022-09-27T21:41:28.636Z,10.70
2022-09-27T21:43:55.973Z,11.00
2022-09-27T21:46:28.524Z,10.80
2022-09-27T21:48:58.739Z,10.80
2022-09-27T21:51:37.064Z,10.60
2022-09-27T21:54:08.611Z,11.20
2022-09-27T21:56:38.588Z,11.20
2022-09-27T21:59:09.305Z,11.00
2022-09-27T22:01:36.218Z,10.90
2022-09-27T22:04:05.610Z,11.10
2022-09-27T22:06:36.322Z,10.80
2022-09-27T22:09:07.595Z,11.20
2022-09-27T22:11:37.289Z,10.70
2022-09-27T22:14:06.786Z,10.70
2022-09-27T22:16:33.615Z,10.90
2022-09-27T22:19:00.421Z,10.80
2022-09-27T22:21:34.553Z,10.80
2022-09-27T22:24:08.504Z,10.90
2022-09-27T22:26:38.503Z,10.80
2022-09-27T22:29:06.218Z,10.80
2022-09-27T22:31:34.100Z,10.70
2022-09-27T22:34:04.015Z,11.10
2022-09-27T22:36:31.667Z,10.90
2022-09-27T22:38:58.541Z,10.80
2022-09-27T22:41:25.578Z,10.90
2022-09-27T22:43:53.466Z,10.90
2022-09-27T22:46:21.185Z,10.80
2022-09-27T22:48:49.506Z,10.80
2022-09-27T22:51:17.288Z,10.70
2022-09-27T22:53:44.309Z,11.00
2022-09-27T22:56:18.887Z,10.80
2022-09-27T22:58:47.278Z,10.80
2022-09-27T23:01:20.101Z,10.70
2022-09-27T23:03:49.476Z,10.70
2022-09-27T23:06:18.357Z,10.80
2022-09-27T23:08:46.000Z,11.00
2022-09-27T23:11:17.736Z,10.90
2022-09-27T23:13:45.391Z,10.90
2022-09-27T23:16:16.592Z,11.00
2022-09-27T23:18:44.468Z,11.10
2022-09-27T23:21:13.488Z,10.90
2022-09-27T23:23:44.602Z,11.10
2022-09-27T23:26:14.138Z,11.00
2022-09-27T23:28:41.820Z,10.90
2022-09-27T23:31:14.683Z,10.80
2022-09-27T23:33:45.584Z,10.90
2022-09-27T23:36:16.017Z,10.80
2022-09-27T23:38:45.593Z,10.80
2022-09-27T23:41:13.770Z,10.80
2022-09-27T23:43:40.557Z,10.80
2022-09-27T23:46:09.109Z,10.90
2022-09-27T23:48:36.929Z,11.00
2022-09-27T23:51:10.146Z,10.70
2022-09-27T23:53:38.228Z,10.90
2022-09-27T23:56:15.307Z,11.00
2022-09-27T23:58:44.815Z,11.20
